FW6328 Weather Reports


Display with metric or nautical units.
time (UTC)temp
F
wind
direction
speed
MPH
gust
MPH
rain 1hr
in
rain 24hr
in
rain mn
in
humidity
%
barometer
mb
20200707101527 57 181 3.0 4.0 0.00 0.00 0.00 84 1014.8
20200707100536 57 190 4.0 5.0 0.00 0.00 0.00 84 1014.8
20200707095525 57 0.0 0.0 0.00 0.00 0.00 84 1014.8
20200707094527 57 0.0 0.0 0.00 0.00 0.00 85 1014.8
20200707093523 57 0.0 0.0 0.00 0.00 0.00 85 1014.8
20200707092531 57 214 3.0 5.0 0.00 0.00 0.00 85 1014.8
20200707090528 57 0.0 0.0 0.00 0.00 0.00 85 1014.8
20200707085522 57 192 0.0 2.0 0.00 0.00 0.00 85 1014.8
20200707084526 57 208 4.0 6.0 0.00 0.00 0.00 85 1014.8
20200707083533 57 225 5.0 7.0 0.00 0.00 0.00 85 1014.8
20200707082527 57 208 7.0 11.0 0.00 0.00 0.00 85 1014.8
20200707081525 57 219 8.0 9.0 0.00 0.00 0.00 83 1014.8
20200707080520 58 227 5.0 9.0 0.00 0.00 0.00 82 1014.8
20200707075523 58 231 7.0 10.0 0.00 0.00 0.00 81 1014.8
20200707074535 58 236 8.0 12.0 0.00 0.00 0.00 80 1014.8
20200707073524 59 249 7.0 10.0 0.00 0.00 0.00 78 1014.8
20200707072521 59 231 8.0 11.0 0.00 0.00 0.00 78 1014.8
20200707071522 59 247 7.0 11.0 0.00 0.00 0.00 78 1014.8
20200707070530 59 227 7.0 10.0 0.00 0.00 0.00 78 1014.8
20200707065538 59 220 6.0 7.0 0.00 0.00 0.00 78 1014.8
20200707064523 59 247 6.0 8.0 0.00 0.00 0.00 78 1014.8
20200707063536 59 231 6.0 8.0 0.00 0.00 0.00 79 1014.8
20200707062524 59 224 5.0 7.0 0.00 0.00 0.00 79 1014.8
20200707061527 59 225 6.0 8.0 0.00 0.00 0.00 80 1014.8
20200707060522 59 218 4.0 6.0 0.00 0.00 0.00 80 1014.8
20200707055530 59 240 5.0 8.0 0.00 0.00 0.00 80 1014.8
20200707054519 59 258 6.0 9.0 0.00 0.00 0.00 79 1014.8
20200707053549 59 234 6.0 8.0 0.00 0.00 0.00 79 1014.8
20200707052524 59 243 6.0 8.0 0.00 0.00 0.00 79 1013.8
20200707051521 59 230 6.0 7.0 0.00 0.00 0.00 78 1013.8
20200707050532 59 241 6.0 9.0 0.00 0.00 0.00 78 1013.8
20200707045521 59 232 7.0 9.0 0.00 0.00 0.00 77 1013.8
20200707044529 59 241 6.0 8.0 0.00 0.00 0.00 77 1013.8
20200707043537 59 257 8.0 11.0 0.00 0.00 0.00 77 1013.8
20200707042528 60 265 9.0 12.0 0.00 0.00 0.00 77 1013.8
20200707041526 60 259 6.0 9.0 0.00 0.00 0.00 77 1013.8
20200707040524 60 239 6.0 9.0 0.00 0.00 0.00 77 1013.8
20200707035531 60 257 8.0 12.0 0.00 0.00 0.00 77 1013.8
20200707034521 61 253 9.0 13.0 0.00 0.00 0.00 76 1013.8
20200707033528 61 256 8.0 9.0 0.00 0.00 0.00 76 1013.8
20200707032536 62 234 7.0 10.0 0.00 0.00 0.00 76 1013.8
20200707031523 62 240 9.0 15.0 0.00 0.00 0.00 75 1013.8
20200707030533 62 236 9.0 15.0 0.00 0.00 0.00 75 1013.8
20200707025523 62 246 7.0 10.0 0.00 0.00 0.00 75 1013.8
20200707024520 62 238 8.0 11.0 0.00 0.00 0.00 75 1013.8
20200707023520 62 265 9.0 13.0 0.00 0.00 0.00 75 1013.8
20200707022521 62 254 9.0 12.0 0.00 0.00 0.00 76 1013.8
20200707021554 62 261 10.0 13.0 0.00 0.00 0.00 76 1013.8
20200707020525 63 272 9.0 13.0 0.00 0.00 0.00 75 1013.8
20200707015527 64 242 8.0 12.0 0.00 0.00 0.00 72 1013.8
20200707014522 64 270 9.0 12.0 0.00 0.00 0.00 72 1013.8
20200707013529 64 241 10.0 13.0 0.00 0.00 0.00 72 1013.8
20200707012524 64 265 9.0 13.0 0.00 0.00 0.00 71 1013.8
20200707011526 65 247 10.0 12.0 0.00 0.00 0.00 69 1013.8
20200707010534 66 238 11.0 15.0 0.00 0.00 0.00 68 1013.8
20200707005523 66 262 11.0 15.0 0.00 0.00 0.00 68 1012.8
20200707004531 66 253 9.0 12.0 0.00 0.00 0.00 68 1012.8
20200707003520 66 253 10.0 15.0 0.00 0.00 0.00 68 1012.8
20200707002527 66 255 10.0 15.0 0.00 0.00 0.00 67 1013.8
20200707001535 68 241 9.0 11.0 0.00 0.00 0.00 65 1013.8
20200707000528 68 227 9.0 15.0 0.00 0.00 0.00 64 1012.8
20200706235522 68 262 9.0 13.0 0.00 0.00 0.00 64 1012.8
20200706234521 68 256 8.0 12.0 0.00 0.00 0.00 61 1012.8
20200706233525 69 246 8.0 11.0 0.00 0.00 0.00 60 1013.8
20200706232537 70 244 7.0 9.0 0.00 0.00 0.00 59 1013.8
20200706231527 70 231 6.0 9.0 0.00 0.00 0.00 59 1013.8
20200706230523 69 275 7.0 10.0 0.00 0.00 0.00 61 1013.8
20200706225523 69 260 6.0 10.0 0.00 0.00 0.00 60 1013.8
20200706224531 69 257 7.0 9.0 0.00 0.00 0.00 61 1013.8
20200706223521 69 262 8.0 12.0 0.00 0.00 0.00 61 1013.8
20200706222521 69 251 9.0 11.0 0.00 0.00 0.00 59 1013.8
20200706221537 71 262 7.0 10.0 0.00 0.00 0.00 57 1013.8
20200706220519 69 278 8.0 10.0 0.00 0.00 0.00 58 1013.8
20200706215537 70 259 6.0 11.0 0.00 0.00 0.00 59 1013.8
20200706214523 69 271 7.0 10.0 0.00 0.00 0.00 59 1013.8
20200706213530 69 256 7.0 10.0 0.00 0.00 0.00 58 1013.8
20200706212520 72 244 5.0 8.0 0.00 0.00 0.00 53 1013.8
20200706211528 71 197 5.0 7.0 0.00 0.00 0.00 54 1013.8
20200706210535 71 256 4.0 6.0 0.00 0.00 0.00 56 1013.8
20200706205525 71 270 4.0 7.0 0.00 0.00 0.00 56 1013.8
20200706204536 71 263 3.0 5.0 0.00 0.00 0.00 55 1013.8
20200706203521 71 181 2.0 4.0 0.00 0.00 0.00 56 1013.8
20200706202531 70 286 5.0 7.0 0.00 0.00 0.00 58 1013.8
20200706201519 70 248 5.0 8.0 0.00 0.00 0.00 58 1013.8
20200706200527 69 283 5.0 7.0 0.00 0.00 0.00 60 1013.8
20200706195528 70 258 7.0 10.0 0.00 0.00 0.00 60 1013.8
20200706194524 68 249 5.0 7.0 0.00 0.00 0.00 61 1013.8
20200706193532 71 272 5.0 6.0 0.00 0.00 0.00 58 1013.8
20200706192522 69 283 5.0 8.0 0.00 0.00 0.00 60 1013.8
20200706191530 70 266 6.0 7.0 0.00 0.00 0.00 59 1014.0
20200706190519 70 281 5.0 7.0 0.00 0.00 0.00 58 1014.8
20200706185527 71 218 4.0 8.0 0.00 0.00 0.00 57 1014.8
20200706184534 71 235 5.0 7.0 0.00 0.00 0.00 58 1014.8
20200706183523 69 231 3.0 6.0 0.00 0.00 0.00 62 1014.8
20200706182523 69 257 6.0 7.0 0.00 0.00 0.00 61 1014.8
20200706181522 67 208 3.0 4.0 0.00 0.00 0.00 64 1014.8
20200706180547 66 283 5.0 7.0 0.00 0.00 0.00 65 1014.8
20200706175521 68 314 3.0 5.0 0.00 0.00 0.00 63 1014.8
20200706174526 67 214 5.0 7.0 0.00 0.00 0.00 63 1014.8
20200706173536 67 236 4.0 5.0 0.00 0.00 0.00 63 1014.8
20200706172524 67 260 5.0 8.0 0.00 0.00 0.00 61 1014.8
20200706171532 68 219 5.0 7.0 0.00 0.00 0.00 60 1014.8
20200706170522 69 197 2.0 3.0 0.00 0.00 0.00 60 1014.8
20200706165529 67 159 2.0 5.0 0.00 0.00 0.00 61 1014.8
20200706164533 66 204 5.0 7.0 0.00 0.00 0.00 63 1014.8
20200706163526 65 208 3.0 6.0 0.00 0.00 0.00 67 1014.8
20200706162534 62 203 3.0 5.0 0.00 0.00 0.00 71 1014.8
20200706161523 62 207 5.0 6.0 0.00 0.00 0.00 72 1014.8
20200706160531 62 219 4.0 6.0 0.00 0.00 0.00 72 1014.8
20200706155522 62 250 2.0 5.0 0.00 0.00 0.00 73 1014.8
20200706154532 61 242 3.0 5.0 0.00 0.00 0.00 75 1014.8
20200706153520 60 260 3.0 6.0 0.00 0.00 0.00 76 1014.8
20200706152527 59 216 3.0 4.0 0.00 0.00 0.00 78 1014.8
20200706151527 59 0.0 0.0 0.00 0.00 0.00 79 1014.8
20200706150523 58 240 5.0 6.0 0.00 0.00 0.00 79 1014.8
20200706145531 58 228 4.0 7.0 0.00 0.00 0.00 80 1014.8
20200706144520 57 268 5.0 7.0 0.00 0.00 0.00 80 1014.8
20200706143528 57 236 4.0 6.0 0.00 0.00 0.00 81 1014.8
20200706142536 57 239 5.0 7.0 0.00 0.00 0.00 82 1014.8
20200706141526 57 235 4.0 6.0 0.00 0.00 0.00 82 1014.8
20200706140534 57 230 4.0 5.0 0.00 0.00 0.00 83 1014.8
20200706135523 57 222 4.0 6.0 0.00 0.00 0.00 83 1014.8
20200706134521 56 227 4.0 6.0 0.00 0.00 0.00 83 1014.8
20200706133520 56 222 4.0 5.0 0.00 0.00 0.00 84 1014.8
20200706132520 56 210 4.0 6.0 0.00 0.00 0.00 84 1014.9
20200706131520 56 211 3.0 5.0 0.00 0.00 0.00 84 1014.8
20200706130525 56 257 3.0 5.0 0.00 0.00 0.00 85 1014.8
20200706125526 56 253 3.0 4.0 0.00 0.00 0.00 85 1014.8
20200706124522 56 237 3.0 4.0 0.00 0.00 0.00 85 1014.9
20200706123530 56 250 4.0 6.0 0.00 0.00 0.00 85 1014.8
20200706122520 56 233 5.0 6.0 0.00 0.00 0.00 85 1014.9
20200706121527 56 244 5.0 7.0 0.00 0.00 0.00 85 1014.9
20200706120523 56 218 5.0 6.0 0.00 0.00 0.00 85 1014.8
20200706115526 56 243 5.0 7.0 0.00 0.00 0.00 85 1014.8
20200706114524 56 240 5.0 8.0 0.00 0.00 0.00 85 1014.9
20200706113523 56 243 5.0 7.0 0.00 0.00 0.00 85 1014.9
20200706112531 56 230 7.0 9.0 0.00 0.00 0.00 84 1014.9
20200706111522 56 253 5.0 6.0 0.00 0.00 0.00 84 1014.9
20200706110528 56 236 4.0 5.0 0.00 0.00 0.00 84 1014.9
20200706105530 56 237 6.0 9.0 0.00 0.00 0.00 84 1014.9
20200706104525 56 227 5.0 8.0 0.00 0.00 0.00 83 1014.9
20200706103527 56 258 4.0 6.0 0.00 0.00 0.00 83 1014.9
20200706102522 56 227 5.0 7.0 0.00 0.00 0.00 83 1014.8